createdAt,value
2022-08-20T00:01:43.287Z,46.75
2022-08-20T00:04:09.656Z,46.74
2022-08-20T00:06:36.038Z,46.74
2022-08-20T00:09:02.424Z,46.78
2022-08-20T00:11:29.033Z,46.80
2022-08-20T00:13:55.196Z,46.79
2022-08-20T00:16:21.593Z,46.78
2022-08-20T00:18:48.001Z,46.78
2022-08-20T00:21:19.042Z,46.74
2022-08-20T00:23:40.763Z,46.75
2022-08-20T00:26:07.144Z,46.78
2022-08-20T00:28:33.517Z,46.80
2022-08-20T00:30:59.907Z,46.72
2022-08-20T00:33:26.287Z,46.80
2022-08-20T00:35:52.673Z,46.79
2022-08-20T00:38:19.055Z,46.77
2022-08-20T00:40:45.466Z,46.81
2022-08-20T00:43:11.845Z,46.78
2022-08-20T00:45:38.280Z,46.80
2022-08-20T00:48:04.680Z,46.72
2022-08-20T00:50:31.068Z,46.79
2022-08-20T00:52:57.477Z,46.85
2022-08-20T00:55:26.445Z,46.81
2022-08-20T00:58:00.493Z,46.79
2022-08-20T01:00:16.676Z,46.91
2022-08-20T01:02:43.049Z,46.85
2022-08-20T01:05:09.438Z,46.79
2022-08-20T01:07:35.816Z,46.75
2022-08-20T01:10:02.203Z,46.74
2022-08-20T01:12:28.587Z,46.74
2022-08-20T01:14:55.076Z,46.71
2022-08-20T01:17:21.457Z,46.70
2022-08-20T01:19:47.843Z,46.73
2022-08-20T01:22:14.226Z,46.71
2022-08-20T01:24:40.610Z,46.78
2022-08-20T01:27:06.997Z,46.83
2022-08-20T01:29:33.395Z,46.82
2022-08-20T01:31:59.772Z,46.83
2022-08-20T01:34:26.151Z,46.87
2022-08-20T01:36:52.562Z,46.86
2022-08-20T01:39:18.946Z,46.89
2022-08-20T01:41:45.334Z,46.89
2022-08-20T01:44:15.423Z,46.89
2022-08-20T01:46:38.122Z,46.89
2022-08-20T01:49:04.496Z,46.89
2022-08-20T01:51:30.865Z,46.87
2022-08-20T01:53:57.274Z,46.86
2022-08-20T01:56:23.648Z,46.89
2022-08-20T01:58:50.155Z,46.89
2022-08-20T02:01:16.613Z,46.89
2022-08-20T02:03:44.768Z,46.90
2022-08-20T02:06:09.455Z,46.87
2022-08-20T02:08:35.853Z,46.92
2022-08-20T02:11:02.246Z,46.89
2022-08-20T02:13:28.627Z,46.96
2022-08-20T02:15:55.009Z,46.87
2022-08-20T02:18:21.402Z,46.93
2022-08-20T02:20:47.776Z,46.89
2022-08-20T02:23:14.161Z,46.84
2022-08-20T02:25:40.558Z,46.87
2022-08-20T02:28:06.926Z,46.90
2022-08-20T02:30:33.309Z,46.88
2022-08-20T02:32:59.691Z,46.93
2022-08-20T02:35:26.076Z,46.86
2022-08-20T02:37:52.578Z,46.87
2022-08-20T02:40:18.933Z,46.89
2022-08-20T02:42:45.243Z,46.92
2022-08-20T02:45:11.628Z,46.89
2022-08-20T02:47:38.015Z,46.84
2022-08-20T02:50:04.394Z,46.84
2022-08-20T02:52:30.778Z,46.86
2022-08-20T02:54:57.167Z,46.92
2022-08-20T02:57:23.556Z,46.86
2022-08-20T02:59:49.943Z,46.86
2022-08-20T03:02:16.320Z,46.83
2022-08-20T03:04:42.855Z,46.87
2022-08-20T03:07:09.232Z,46.86
2022-08-20T03:09:35.618Z,46.85
2022-08-20T03:12:02.135Z,46.93
2022-08-20T03:14:28.522Z,46.92
2022-08-20T03:16:55.012Z,46.89
2022-08-20T03:19:21.434Z,46.94
2022-08-20T03:21:47.828Z,46.95
2022-08-20T03:24:14.200Z,46.98
2022-08-20T03:26:40.589Z,46.95
2022-08-20T03:29:06.964Z,47.04
2022-08-20T03:31:33.500Z,47.00
2022-08-20T03:33:59.889Z,46.91
2022-08-20T03:36:27.970Z,46.95
2022-08-20T03:38:52.671Z,46.86
2022-08-20T03:41:19.053Z,46.85
2022-08-20T03:43:45.460Z,46.88
2022-08-20T03:46:23.040Z,46.87
2022-08-20T03:48:38.230Z,46.86
2022-08-20T03:51:04.623Z,46.92
2022-08-20T03:53:31.009Z,46.83
2022-08-20T03:56:02.093Z,46.84
2022-08-20T03:58:33.270Z,46.86
2022-08-20T04:00:50.190Z,46.85
2022-08-20T04:03:16.569Z,46.83
2022-08-20T04:05:42.980Z,46.87
2022-08-20T04:08:09.362Z,46.92
2022-08-20T04:10:35.756Z,46.86
2022-08-20T04:13:02.259Z,46.88
2022-08-20T04:15:29.700Z,46.97
2022-08-20T04:17:56.165Z,46.86
2022-08-20T04:20:22.580Z,46.88
2022-08-20T04:22:50.853Z,46.89
2022-08-20T04:25:15.914Z,46.86
2022-08-20T04:27:41.749Z,46.87
2022-08-20T04:30:08.209Z,46.88
2022-08-20T04:32:34.596Z,46.91
2022-08-20T04:35:00.982Z,46.91
2022-08-20T04:37:27.370Z,46.91
2022-08-20T04:39:53.906Z,46.88
2022-08-20T04:42:20.277Z,46.92
2022-08-20T04:44:46.671Z,46.92
2022-08-20T04:47:13.062Z,46.88
2022-08-20T04:49:39.475Z,46.91
2022-08-20T04:52:05.857Z,46.92
2022-08-20T04:54:32.239Z,46.91
2022-08-20T04:56:58.625Z,46.89
2022-08-20T04:59:25.013Z,46.91
2022-08-20T05:01:51.404Z,46.93
2022-08-20T05:04:17.791Z,46.90
2022-08-20T05:06:44.196Z,46.91
2022-08-20T05:09:10.587Z,46.87
2022-08-20T05:11:37.178Z,46.92
2022-08-20T05:14:03.360Z,46.97
2022-08-20T05:16:29.830Z,47.02
2022-08-20T05:18:56.558Z,47.18
2022-08-20T05:21:23.002Z,47.12
2022-08-20T05:23:49.656Z,47.24
2022-08-20T05:26:16.026Z,47.36
2022-08-20T05:28:54.459Z,47.44
2022-08-20T05:31:08.556Z,47.45
2022-08-20T05:33:34.944Z,47.49
2022-08-20T05:36:01.321Z,47.54
2022-08-20T05:38:27.715Z,47.65
2022-08-20T05:40:54.092Z,47.70
2022-08-20T05:43:20.477Z,47.71
2022-08-20T05:45:46.870Z,47.87
2022-08-20T05:48:13.265Z,47.90
2022-08-20T05:50:39.652Z,47.98
2022-08-20T05:53:06.042Z,48.01
2022-08-20T05:55:32.422Z,48.12
2022-08-20T05:57:58.813Z,48.01
2022-08-20T06:00:25.194Z,48.03
2022-08-20T06:02:51.579Z,48.14
2022-08-20T06:05:17.988Z,48.19
2022-08-20T06:07:44.374Z,48.24
2022-08-20T06:10:10.760Z,48.27
2022-08-20T06:12:37.146Z,48.26
2022-08-20T06:15:03.534Z,48.22
2022-08-20T06:17:36.401Z,48.32
2022-08-20T06:19:56.379Z,48.31
2022-08-20T06:22:26.275Z,48.26
2022-08-20T06:24:49.247Z,48.33
2022-08-20T06:27:15.651Z,48.36
2022-08-20T06:29:42.021Z,48.35
2022-08-20T06:32:08.447Z,48.30
2022-08-20T06:34:34.830Z,48.38
2022-08-20T06:37:01.235Z,48.43
2022-08-20T06:39:27.625Z,48.43
2022-08-20T06:41:54.008Z,48.45
2022-08-20T06:44:20.403Z,48.43
2022-08-20T06:46:46.785Z,48.56
2022-08-20T06:49:13.210Z,48.58
2022-08-20T06:51:40.084Z,48.52
2022-08-20T06:54:05.985Z,48.57
2022-08-20T06:56:32.370Z,48.63
2022-08-20T06:58:58.756Z,48.60
2022-08-20T07:01:25.197Z,48.79
2022-08-20T07:03:55.495Z,48.88
2022-08-20T07:06:17.921Z,48.80
2022-08-20T07:08:44.309Z,48.94
2022-08-20T07:11:10.685Z,48.99
2022-08-20T07:13:37.071Z,49.01
2022-08-20T07:16:03.449Z,49.08
2022-08-20T07:18:29.834Z,49.08
2022-08-20T07:20:56.251Z,49.24
2022-08-20T07:23:22.659Z,49.29
2022-08-20T07:25:49.167Z,49.38
2022-08-20T07:28:15.558Z,49.39
2022-08-20T07:30:56.064Z,49.44
2022-08-20T07:33:08.334Z,49.54
2022-08-20T07:35:34.793Z,49.61
2022-08-20T07:38:01.186Z,49.69
2022-08-20T07:40:27.650Z,49.69
2022-08-20T07:42:53.947Z,49.66
2022-08-20T07:45:20.327Z,49.73
2022-08-20T07:47:46.718Z,49.69
2022-08-20T07:50:15.386Z,49.72
2022-08-20T07:52:41.787Z,49.73
2022-08-20T07:55:08.178Z,49.66
2022-08-20T07:57:34.567Z,49.66
2022-08-20T08:00:00.952Z,49.63
2022-08-20T08:02:27.347Z,49.60
2022-08-20T08:04:53.733Z,49.63
2022-08-20T08:07:20.118Z,49.58
2022-08-20T08:09:46.500Z,49.62
2022-08-20T08:12:12.887Z,49.50
2022-08-20T08:14:39.281Z,49.52
2022-08-20T08:17:05.661Z,49.57
2022-08-20T08:19:32.046Z,49.49
2022-08-20T08:21:58.434Z,49.54
2022-08-20T08:24:28.326Z,49.58
2022-08-20T08:26:51.204Z,49.59
2022-08-20T08:29:17.593Z,49.62
2022-08-20T08:31:44.015Z,49.65
2022-08-20T08:34:10.457Z,49.67
2022-08-20T08:36:36.840Z,49.69
2022-08-20T08:39:03.220Z,49.74
2022-08-20T08:41:29.604Z,49.82
2022-08-20T08:43:55.988Z,49.80
2022-08-20T08:46:22.372Z,49.85
2022-08-20T08:48:48.755Z,49.86
2022-08-20T08:51:15.259Z,49.83
2022-08-20T08:53:41.640Z,49.86
2022-08-20T08:56:08.058Z,49.84
2022-08-20T08:58:34.449Z,49.84
2022-08-20T09:01:02.094Z,49.83
2022-08-20T09:03:27.213Z,49.76
2022-08-20T09:05:53.602Z,49.70
2022-08-20T09:08:19.989Z,49.74
2022-08-20T09:10:46.376Z,49.72
2022-08-20T09:13:12.768Z,49.88
2022-08-20T09:15:40.470Z,49.69
2022-08-20T09:18:05.545Z,49.71
2022-08-20T09:20:31.944Z,49.70
2022-08-20T09:22:58.469Z,49.66
2022-08-20T09:25:24.750Z,49.73
2022-08-20T09:27:51.137Z,49.80
2022-08-20T09:30:17.980Z,49.79
2022-08-20T09:32:43.921Z,49.78
2022-08-20T09:35:10.322Z,49.79
2022-08-20T09:37:37.867Z,49.99
2022-08-20T09:40:03.141Z,49.99
2022-08-20T09:42:29.488Z,49.99
2022-08-20T09:44:55.874Z,50.04
2022-08-20T09:47:22.266Z,50.06
2022-08-20T09:49:48.655Z,50.08
2022-08-20T09:52:15.037Z,50.05
2022-08-20T09:54:46.263Z,50.13
2022-08-20T09:57:07.828Z,50.05
2022-08-20T09:59:34.226Z,50.15
2022-08-20T10:02:00.684Z,50.03
2022-08-20T10:04:27.027Z,50.17
2022-08-20T10:06:53.409Z,50.22
2022-08-20T10:09:19.795Z,50.20
2022-08-20T10:11:48.388Z,50.25
2022-08-20T10:14:14.786Z,50.29
2022-08-20T10:16:41.167Z,50.29
2022-08-20T10:19:07.555Z,50.29
2022-08-20T10:21:38.459Z,50.24
2022-08-20T10:24:00.361Z,50.26
2022-08-20T10:26:26.744Z,50.31
2022-08-20T10:28:53.134Z,50.31
2022-08-20T10:31:21.787Z,50.27
2022-08-20T10:33:48.194Z,50.34
2022-08-20T10:36:14.573Z,50.39
2022-08-20T10:38:40.959Z,50.42
2022-08-20T10:41:07.362Z,50.44
2022-08-20T10:43:33.856Z,50.44
2022-08-20T10:46:00.240Z,50.44
2022-08-20T10:48:26.632Z,50.41
2022-08-20T10:50:53.089Z,50.45
2022-08-20T10:53:19.586Z,50.39
2022-08-20T10:55:45.983Z,50.38
2022-08-20T10:58:12.372Z,50.39
2022-08-20T11:00:38.756Z,50.37
2022-08-20T11:03:05.162Z,50.35
2022-08-20T11:05:31.581Z,50.31
2022-08-20T11:07:57.965Z,50.25
2022-08-20T11:10:24.349Z,50.30
2022-08-20T11:12:50.751Z,50.26
2022-08-20T11:15:17.130Z,50.21
2022-08-20T11:17:43.617Z,50.20
2022-08-20T11:20:10.043Z,50.16
2022-08-20T11:22:38.593Z,50.23
2022-08-20T11:25:04.986Z,50.32
2022-08-20T11:27:31.367Z,50.33
2022-08-20T11:29:57.761Z,50.34
2022-08-20T11:32:24.166Z,50.37
2022-08-20T11:34:50.557Z,50.44
2022-08-20T11:37:16.947Z,50.53
2022-08-20T11:39:43.409Z,50.48
2022-08-20T11:42:09.729Z,50.52
2022-08-20T11:44:36.108Z,50.58
2022-08-20T11:47:02.495Z,50.56
2022-08-20T11:49:28.884Z,50.54
2022-08-20T11:51:55.282Z,50.50
2022-08-20T11:54:21.725Z,50.42
2022-08-20T11:56:48.107Z,50.27
2022-08-20T11:59:14.550Z,50.21
2022-08-20T12:01:41.447Z,50.13
2022-08-20T12:04:07.517Z,50.12
2022-08-20T12:06:34.023Z,50.07
2022-08-20T12:09:00.410Z,50.02
2022-08-20T12:11:26.795Z,50.01
2022-08-20T12:13:53.173Z,49.96
2022-08-20T12:16:19.564Z,49.92
2022-08-20T12:18:46.008Z,49.93
2022-08-20T12:21:12.394Z,49.87
2022-08-20T12:23:38.777Z,49.91
2022-08-20T12:26:05.195Z,50.01
2022-08-20T12:28:31.624Z,49.96
2022-08-20T12:30:58.012Z,49.99
2022-08-20T12:33:24.398Z,50.08
2022-08-20T12:35:50.806Z,50.19
2022-08-20T12:38:17.189Z,50.25
2022-08-20T12:40:43.580Z,50.35
2022-08-20T12:43:09.964Z,50.42
2022-08-20T12:45:36.348Z,50.45
2022-08-20T12:48:02.878Z,50.58
2022-08-20T12:50:31.668Z,51.13
2022-08-20T12:52:55.893Z,51.52
2022-08-20T12:55:22.177Z,51.89
2022-08-20T12:57:48.567Z,52.24
2022-08-20T13:00:14.961Z,52.45
2022-08-20T13:02:41.347Z,52.75
2022-08-20T13:05:07.734Z,52.91
2022-08-20T13:07:34.121Z,53.02
2022-08-20T13:10:00.574Z,52.92
2022-08-20T13:12:26.970Z,53.02
2022-08-20T13:14:53.396Z,53.05
2022-08-20T13:17:19.776Z,53.16
2022-08-20T13:19:46.175Z,53.27
2022-08-20T13:22:12.557Z,53.44
2022-08-20T13:24:38.942Z,53.70
2022-08-20T13:27:05.331Z,53.92
2022-08-20T13:29:31.734Z,53.99
2022-08-20T13:31:58.267Z,54.40
2022-08-20T13:34:24.676Z,54.63
2022-08-20T13:36:51.061Z,54.94
2022-08-20T13:39:17.450Z,55.17
2022-08-20T13:41:43.828Z,55.46
2022-08-20T13:44:10.211Z,55.71
2022-08-20T13:46:36.766Z,55.95
2022-08-20T13:49:03.150Z,56.21
2022-08-20T13:51:30.461Z,56.32
2022-08-20T13:53:55.940Z,56.54
2022-08-20T13:56:22.328Z,56.65
2022-08-20T13:58:48.763Z,56.89
2022-08-20T14:01:15.206Z,57.06
2022-08-20T14:03:42.679Z,57.09
2022-08-20T14:06:07.926Z,56.57
2022-08-20T14:08:34.311Z,56.14
2022-08-20T14:11:00.721Z,55.99
2022-08-20T14:13:27.109Z,55.83
2022-08-20T14:15:53.514Z,55.68
2022-08-20T14:18:19.895Z,55.64
2022-08-20T14:20:46.277Z,55.55
2022-08-20T14:23:12.670Z,55.56
2022-08-20T14:25:39.050Z,55.51
2022-08-20T14:28:05.440Z,55.44
2022-08-20T14:30:31.824Z,55.38
2022-08-20T14:32:58.335Z,55.34
2022-08-20T14:35:24.594Z,55.33
2022-08-20T14:37:50.983Z,55.33
2022-08-20T14:40:17.397Z,55.30
2022-08-20T14:42:43.815Z,55.37
2022-08-20T14:45:10.198Z,55.27
2022-08-20T14:47:36.591Z,55.27
2022-08-20T14:50:03.018Z,55.30
2022-08-20T14:52:29.450Z,55.30
2022-08-20T14:54:55.834Z,55.26
2022-08-20T14:57:22.218Z,55.31
2022-08-20T14:59:48.596Z,55.32
2022-08-20T15:02:15.077Z,55.33
2022-08-20T15:04:42.412Z,55.28
2022-08-20T15:07:08.144Z,55.33
2022-08-20T15:09:34.532Z,55.29
2022-08-20T15:12:00.917Z,55.32
2022-08-20T15:14:27.301Z,55.29
2022-08-20T15:16:53.690Z,55.26
2022-08-20T15:19:20.075Z,55.23
2022-08-20T15:21:46.467Z,55.18
2022-08-20T15:24:19.031Z,55.18
2022-08-20T15:26:39.235Z,55.05
2022-08-20T15:29:05.614Z,55.12
2022-08-20T15:31:34.391Z,55.15
2022-08-20T15:34:00.863Z,55.10
2022-08-20T15:36:27.259Z,55.02
2022-08-20T15:38:53.645Z,55.00
2022-08-20T15:41:20.126Z,54.94
2022-08-20T15:43:46.495Z,54.95
2022-08-20T15:46:12.896Z,54.94
2022-08-20T15:48:39.297Z,54.86
2022-08-20T15:51:05.693Z,54.86
2022-08-20T15:53:32.099Z,54.88
2022-08-20T15:55:58.483Z,54.91
2022-08-20T15:58:24.869Z,54.84
2022-08-20T16:00:51.273Z,54.90
2022-08-20T16:03:17.640Z,54.83
2022-08-20T16:05:44.034Z,54.83
2022-08-20T16:08:10.421Z,54.88
2022-08-20T16:10:36.860Z,54.88
2022-08-20T16:13:03.281Z,54.73
2022-08-20T16:15:29.659Z,54.68
2022-08-20T16:17:56.120Z,54.69
2022-08-20T16:20:22.504Z,54.67
2022-08-20T16:22:48.886Z,54.63
2022-08-20T16:25:15.273Z,54.67
2022-08-20T16:27:42.882Z,54.63
2022-08-20T16:30:08.038Z,54.74
2022-08-20T16:32:34.441Z,54.69
2022-08-20T16:35:00.840Z,54.58
2022-08-20T16:37:27.275Z,54.62
2022-08-20T16:39:53.705Z,54.46
2022-08-20T16:42:20.043Z,54.54
2022-08-20T16:44:46.430Z,54.32
2022-08-20T16:47:13.995Z,54.48
2022-08-20T16:49:39.236Z,54.38
2022-08-20T16:52:05.630Z,54.40
2022-08-20T16:54:32.033Z,54.48
2022-08-20T16:56:58.412Z,54.28
2022-08-20T16:59:26.770Z,54.34
2022-08-20T17:01:51.189Z,54.26
2022-08-20T17:04:17.575Z,54.24
2022-08-20T17:06:43.962Z,54.25
2022-08-20T17:09:10.455Z,54.26
2022-08-20T17:11:36.741Z,54.20
2022-08-20T17:14:03.119Z,54.30
2022-08-20T17:16:29.498Z,54.32
2022-08-20T17:18:55.891Z,54.33
2022-08-20T17:21:22.290Z,54.28
2022-08-20T17:23:55.940Z,54.28
2022-08-20T17:26:15.060Z,54.35
2022-08-20T17:28:41.446Z,54.34
2022-08-20T17:31:07.828Z,54.33
2022-08-20T17:33:34.217Z,54.31
2022-08-20T17:36:00.608Z,54.37
2022-08-20T17:38:26.981Z,54.24
2022-08-20T17:40:53.371Z,54.18
2022-08-20T17:43:19.756Z,54.32
2022-08-20T17:45:46.142Z,54.25
2022-08-20T17:48:12.527Z,54.23
2022-08-20T17:50:38.917Z,54.14
2022-08-20T17:53:05.310Z,54.13
2022-08-20T17:55:31.708Z,53.99
2022-08-20T17:57:58.084Z,54.05
2022-08-20T18:00:24.483Z,54.07
2022-08-20T18:02:50.933Z,53.96
2022-08-20T18:05:17.251Z,53.90
2022-08-20T18:07:46.409Z,53.91
2022-08-20T18:10:12.790Z,53.95
2022-08-20T18:12:39.200Z,53.89
2022-08-20T18:15:05.591Z,53.85
2022-08-20T18:17:31.983Z,53.87
2022-08-20T18:19:58.367Z,53.84
2022-08-20T18:22:24.745Z,53.83
2022-08-20T18:24:51.208Z,53.83
2022-08-20T18:27:17.644Z,53.82
2022-08-20T18:29:44.176Z,53.80
2022-08-20T18:32:10.553Z,53.81
2022-08-20T18:34:37.036Z,53.80
2022-08-20T18:37:03.421Z,53.78
2022-08-20T18:39:29.807Z,53.83
2022-08-20T18:41:56.198Z,54.14
2022-08-20T18:44:22.626Z,54.04
2022-08-20T18:46:49.002Z,54.03
2022-08-20T18:49:15.396Z,53.93
2022-08-20T18:51:41.782Z,53.95
2022-08-20T18:54:08.200Z,53.88
2022-08-20T18:56:34.591Z,53.89
2022-08-20T18:59:01.006Z,53.87
2022-08-20T19:01:27.438Z,53.89
2022-08-20T19:03:53.778Z,53.87
2022-08-20T19:06:20.160Z,53.89
2022-08-20T19:08:46.580Z,53.83
2022-08-20T19:11:13.023Z,53.85
2022-08-20T19:13:39.426Z,53.81
2022-08-20T19:16:05.891Z,53.88
2022-08-20T19:18:32.274Z,53.87
2022-08-20T19:21:00.603Z,53.91
2022-08-20T19:23:25.091Z,53.81
2022-08-20T19:25:51.477Z,53.87
2022-08-20T19:28:17.872Z,53.90
2022-08-20T19:30:44.272Z,54.00
2022-08-20T19:33:10.657Z,53.92
2022-08-20T19:35:37.153Z,53.89
2022-08-20T19:38:03.588Z,53.87
2022-08-20T19:40:29.921Z,53.88
2022-08-20T19:42:56.537Z,53.87
2022-08-20T19:45:22.722Z,53.86
2022-08-20T19:47:49.116Z,53.85
2022-08-20T19:50:15.524Z,53.83
2022-08-20T19:52:41.903Z,53.84
2022-08-20T19:55:08.289Z,53.81
2022-08-20T19:57:34.747Z,53.81
2022-08-20T20:00:01.137Z,53.87
2022-08-20T20:02:27.522Z,53.81
2022-08-20T20:04:54.891Z,53.85
2022-08-20T20:07:20.300Z,54.03
2022-08-20T20:09:46.683Z,54.09
2022-08-20T20:12:21.478Z,54.08
2022-08-20T20:14:39.485Z,54.00
2022-08-20T20:17:05.873Z,54.20
2022-08-20T20:19:32.252Z,54.01
2022-08-20T20:21:58.636Z,53.98
2022-08-20T20:24:25.013Z,53.93
2022-08-20T20:26:51.549Z,53.91
2022-08-20T20:29:17.954Z,53.91
2022-08-20T20:31:44.361Z,53.92
2022-08-20T20:34:10.741Z,53.94
2022-08-20T20:36:37.134Z,53.96
2022-08-20T20:39:03.510Z,53.96
2022-08-20T20:41:29.899Z,54.03
2022-08-20T20:43:56.276Z,54.00
2022-08-20T20:46:22.801Z,53.87
2022-08-20T20:48:49.189Z,53.99
2022-08-20T20:51:15.668Z,54.01
2022-08-20T20:53:49.512Z,54.04
2022-08-20T20:56:08.432Z,54.04
2022-08-20T20:58:34.809Z,53.96
2022-08-20T21:01:01.222Z,53.96
2022-08-20T21:03:27.581Z,53.91
2022-08-20T21:05:53.974Z,53.91
2022-08-20T21:08:20.359Z,53.98
2022-08-20T21:10:46.751Z,53.95
2022-08-20T21:13:13.142Z,53.98
2022-08-20T21:15:39.522Z,53.89
2022-08-20T21:18:05.904Z,53.90
2022-08-20T21:20:32.326Z,53.97
2022-08-20T21:22:58.896Z,53.88
2022-08-20T21:25:25.124Z,53.96
2022-08-20T21:27:54.005Z,53.86
2022-08-20T21:30:17.927Z,53.87
2022-08-20T21:32:44.308Z,53.86
2022-08-20T21:35:10.708Z,53.83
2022-08-20T21:37:37.086Z,53.83
2022-08-20T21:40:03.517Z,53.82
2022-08-20T21:42:29.925Z,53.75
2022-08-20T21:44:56.384Z,53.76
2022-08-20T21:47:22.764Z,53.80
2022-08-20T21:49:49.154Z,53.72
2022-08-20T21:52:15.536Z,53.80
2022-08-20T21:54:41.919Z,53.74
2022-08-20T21:57:08.313Z,53.76
2022-08-20T21:59:34.700Z,53.77
2022-08-20T22:02:01.101Z,53.74
2022-08-20T22:04:34.792Z,53.60
2022-08-20T22:06:56.008Z,53.67
2022-08-20T22:09:22.423Z,53.61
2022-08-20T22:11:53.853Z,53.64
2022-08-20T22:14:15.189Z,53.64
2022-08-20T22:16:42.353Z,53.61
2022-08-20T22:19:10.683Z,53.64
2022-08-20T22:21:34.360Z,53.65
2022-08-20T22:24:00.754Z,53.62
2022-08-20T22:26:27.271Z,53.58
2022-08-20T22:28:53.555Z,53.65
2022-08-20T22:31:19.947Z,53.55
2022-08-20T22:33:46.327Z,53.60
2022-08-20T22:36:12.713Z,53.73
2022-08-20T22:38:39.113Z,53.64
2022-08-20T22:41:09.556Z,53.56
2022-08-20T22:43:31.905Z,53.57
2022-08-20T22:45:58.282Z,53.55
2022-08-20T22:48:24.678Z,53.54
2022-08-20T22:50:51.060Z,53.46
2022-08-20T22:53:17.464Z,53.53
2022-08-20T22:55:43.844Z,53.54
2022-08-20T22:58:10.248Z,53.47
2022-08-20T23:00:36.610Z,53.46
2022-08-20T23:03:02.992Z,53.50
2022-08-20T23:05:29.380Z,53.50
2022-08-20T23:07:55.771Z,53.42
2022-08-20T23:10:22.153Z,53.51
2022-08-20T23:12:48.534Z,53.52
2022-08-20T23:15:14.941Z,53.43
2022-08-20T23:17:41.329Z,53.48
2022-08-20T23:20:07.706Z,53.44
2022-08-20T23:22:34.096Z,53.47
2022-08-20T23:25:00.877Z,53.43
2022-08-20T23:27:26.952Z,53.37
2022-08-20T23:29:53.332Z,53.40
2022-08-20T23:32:19.724Z,53.50
2022-08-20T23:34:46.115Z,53.35
2022-08-20T23:37:12.631Z,53.35
2022-08-20T23:39:39.049Z,53.40
2022-08-20T23:42:05.403Z,53.38
2022-08-20T23:44:31.926Z,53.32
2022-08-20T23:46:58.330Z,53.36
2022-08-20T23:49:24.702Z,53.36
2022-08-20T23:51:51.090Z,53.37
2022-08-20T23:54:17.465Z,53.32
2022-08-20T23:56:43.900Z,53.29
2022-08-20T23:59:10.288Z,53.36
